sensor_id;sensor_type;location;lat;lon;timestamp;P1;durP1;ratioP1;P2;durP2;ratioP2
17169;SDS011;8700;48.222;16.342;2023-07-13T00:02:40;3.55;;;3.25;;
17169;SDS011;8700;48.222;16.342;2023-07-13T00:06:02;3.95;;;3.65;;
17169;SDS011;8700;48.222;16.342;2023-07-13T00:09:23;3.45;;;3.15;;
17169;SDS011;8700;48.222;16.342;2023-07-13T00:12:45;6.25;;;3.25;;
17169;SDS011;8700;48.222;16.342;2023-07-13T00:16:08;3.17;;;2.97;;
17169;SDS011;8700;48.222;16.342;2023-07-13T00:19:30;3.08;;;2.88;;
17169;SDS011;8700;48.222;16.342;2023-07-13T00:22:51;4.22;;;3.40;;
17169;SDS011;8700;48.222;16.342;2023-07-13T00:26:13;4.00;;;2.95;;
17169;SDS011;8700;48.222;16.342;2023-07-13T00:29:36;3.10;;;2.90;;
17169;SDS011;8700;48.222;16.342;2023-07-13T00:32:59;4.13;;;2.47;;
17169;SDS011;8700;48.222;16.342;2023-07-13T00:36:21;6.35;;;5.80;;
17169;SDS011;8700;48.222;16.342;2023-07-13T00:39:42;2.70;;;2.50;;
17169;SDS011;8700;48.222;16.342;2023-07-13T00:43:04;2.97;;;2.75;;
17169;SDS011;8700;48.222;16.342;2023-07-13T00:46:30;3.00;;;2.70;;
17169;SDS011;8700;48.222;16.342;2023-07-13T00:49:54;2.95;;;2.75;;
17169;SDS011;8700;48.222;16.342;2023-07-13T00:53:16;2.67;;;2.47;;
17169;SDS011;8700;48.222;16.342;2023-07-13T00:56:38;3.20;;;3.00;;
17169;SDS011;8700;48.222;16.342;2023-07-13T01:00:03;3.92;;;3.00;;
17169;SDS011;8700;48.222;16.342;2023-07-13T01:03:28;4.55;;;2.88;;
17169;SDS011;8700;48.222;16.342;2023-07-13T01:06:51;3.45;;;2.20;;
17169;SDS011;8700;48.222;16.342;2023-07-13T01:13:59;2.80;;;2.60;;
17169;SDS011;8700;48.222;16.342;2023-07-13T01:17:20;2.30;;;2.08;;
17169;SDS011;8700;48.222;16.342;2023-07-13T01:20:47;1.83;;;1.73;;
17169;SDS011;8700;48.222;16.342;2023-07-13T01:24:11;3.25;;;2.33;;
17169;SDS011;8700;48.222;16.342;2023-07-13T01:27:32;2.42;;;2.03;;
17169;SDS011;8700;48.222;16.342;2023-07-13T01:30:55;2.65;;;2.33;;
17169;SDS011;8700;48.222;16.342;2023-07-13T01:34:18;1.98;;;1.80;;
17169;SDS011;8700;48.222;16.342;2023-07-13T01:37:40;2.45;;;2.28;;
17169;SDS011;8700;48.222;16.342;2023-07-13T01:41:01;2.00;;;1.80;;
17169;SDS011;8700;48.222;16.342;2023-07-13T01:44:23;2.47;;;2.20;;
17169;SDS011;8700;48.222;16.342;2023-07-13T01:47:45;2.55;;;1.90;;
17169;SDS011;8700;48.222;16.342;2023-07-13T01:51:06;2.80;;;2.30;;
17169;SDS011;8700;48.222;16.342;2023-07-13T01:54:29;2.42;;;2.22;;
17169;SDS011;8700;48.222;16.342;2023-07-13T01:57:50;3.13;;;2.35;;
17169;SDS011;8700;48.222;16.342;2023-07-13T02:01:11;2.03;;;1.90;;
17169;SDS011;8700;48.222;16.342;2023-07-13T02:04:33;2.72;;;2.53;;
17169;SDS011;8700;48.222;16.342;2023-07-13T02:07:54;6.65;;;2.80;;
17169;SDS011;8700;48.222;16.342;2023-07-13T02:11:17;2.67;;;2.47;;
17169;SDS011;8700;48.222;16.342;2023-07-13T02:14:38;4.07;;;2.28;;
17169;SDS011;8700;48.222;16.342;2023-07-13T02:18:00;2.38;;;2.28;;
17169;SDS011;8700;48.222;16.342;2023-07-13T02:21:22;2.72;;;2.53;;
17169;SDS011;8700;48.222;16.342;2023-07-13T02:24:44;2.72;;;2.50;;
17169;SDS011;8700;48.222;16.342;2023-07-13T02:28:07;3.00;;;2.70;;
17169;SDS011;8700;48.222;16.342;2023-07-13T02:31:28;3.45;;;3.15;;
17169;SDS011;8700;48.222;16.342;2023-07-13T02:34:49;3.05;;;2.63;;
17169;SDS011;8700;48.222;16.342;2023-07-13T02:38:11;2.92;;;2.65;;
17169;SDS011;8700;48.222;16.342;2023-07-13T02:41:32;2.78;;;2.58;;
17169;SDS011;8700;48.222;16.342;2023-07-13T02:44:55;2.85;;;2.65;;
17169;SDS011;8700;48.222;16.342;2023-07-13T02:48:16;2.95;;;2.70;;
17169;SDS011;8700;48.222;16.342;2023-07-13T02:51:38;2.92;;;2.72;;
17169;SDS011;8700;48.222;16.342;2023-07-13T02:54:59;3.53;;;3.22;;
17169;SDS011;8700;48.222;16.342;2023-07-13T02:58:20;3.10;;;2.80;;
17169;SDS011;8700;48.222;16.342;2023-07-13T03:01:43;2.90;;;2.70;;
17169;SDS011;8700;48.222;16.342;2023-07-13T03:05:04;4.63;;;3.03;;
17169;SDS011;8700;48.222;16.342;2023-07-13T03:08:26;4.85;;;2.95;;
17169;SDS011;8700;48.222;16.342;2023-07-13T03:11:47;5.57;;;2.80;;
17169;SDS011;8700;48.222;16.342;2023-07-13T03:15:09;3.03;;;2.83;;
17169;SDS011;8700;48.222;16.342;2023-07-13T03:18:32;3.15;;;2.83;;
17169;SDS011;8700;48.222;16.342;2023-07-13T03:21:53;3.13;;;2.90;;
17169;SDS011;8700;48.222;16.342;2023-07-13T03:25:15;3.83;;;3.45;;
17169;SDS011;8700;48.222;16.342;2023-07-13T03:28:36;3.20;;;2.90;;
17169;SDS011;8700;48.222;16.342;2023-07-13T03:31:57;3.13;;;2.88;;
17169;SDS011;8700;48.222;16.342;2023-07-13T03:35:20;3.42;;;2.88;;
17169;SDS011;8700;48.222;16.342;2023-07-13T03:38:41;3.33;;;3.00;;
17169;SDS011;8700;48.222;16.342;2023-07-13T03:42:02;3.42;;;3.13;;
17169;SDS011;8700;48.222;16.342;2023-07-13T03:45:24;3.35;;;3.05;;
17169;SDS011;8700;48.222;16.342;2023-07-13T03:48:45;5.22;;;3.47;;
17169;SDS011;8700;48.222;16.342;2023-07-13T03:52:09;4.70;;;3.47;;
17169;SDS011;8700;48.222;16.342;2023-07-13T03:55:30;3.22;;;3.00;;
17169;SDS011;8700;48.222;16.342;2023-07-13T03:58:51;3.47;;;3.08;;
17169;SDS011;8700;48.222;16.342;2023-07-13T04:02:13;2.78;;;2.55;;
17169;SDS011;8700;48.222;16.342;2023-07-13T04:05:34;3.30;;;3.05;;
17169;SDS011;8700;48.222;16.342;2023-07-13T04:08:59;3.28;;;3.08;;
17169;SDS011;8700;48.222;16.342;2023-07-13T04:12:23;3.45;;;2.90;;
17169;SDS011;8700;48.222;16.342;2023-07-13T04:15:44;4.30;;;3.80;;
17169;SDS011;8700;48.222;16.342;2023-07-13T04:19:09;3.25;;;2.97;;
17169;SDS011;8700;48.222;16.342;2023-07-13T04:22:30;3.75;;;3.45;;
17169;SDS011;8700;48.222;16.342;2023-07-13T04:25:53;3.92;;;3.63;;
17169;SDS011;8700;48.222;16.342;2023-07-13T04:29:14;4.57;;;3.70;;
17169;SDS011;8700;48.222;16.342;2023-07-13T04:32:37;5.97;;;3.47;;
17169;SDS011;8700;48.222;16.342;2023-07-13T04:35:58;4.93;;;4.43;;
17169;SDS011;8700;48.222;16.342;2023-07-13T04:39:21;3.13;;;2.92;;
17169;SDS011;8700;48.222;16.342;2023-07-13T04:42:44;3.80;;;3.00;;
17169;SDS011;8700;48.222;16.342;2023-07-13T04:46:06;5.35;;;4.80;;
17169;SDS011;8700;48.222;16.342;2023-07-13T04:49:28;6.40;;;4.57;;
17169;SDS011;8700;48.222;16.342;2023-07-13T04:52:49;4.78;;;3.78;;
17169;SDS011;8700;48.222;16.342;2023-07-13T04:56:11;3.55;;;3.08;;
17169;SDS011;8700;48.222;16.342;2023-07-13T04:59:33;3.67;;;3.40;;
17169;SDS011;8700;48.222;16.342;2023-07-13T05:02:55;3.97;;;3.55;;
17169;SDS011;8700;48.222;16.342;2023-07-13T05:06:18;3.90;;;3.60;;
17169;SDS011;8700;48.222;16.342;2023-07-13T05:09:40;3.92;;;3.58;;
17169;SDS011;8700;48.222;16.342;2023-07-13T05:13:01;2.60;;;2.40;;
17169;SDS011;8700;48.222;16.342;2023-07-13T05:16:24;3.33;;;2.85;;
17169;SDS011;8700;48.222;16.342;2023-07-13T05:19:45;3.65;;;3.35;;
17169;SDS011;8700;48.222;16.342;2023-07-13T05:23:07;2.63;;;2.42;;
17169;SDS011;8700;48.222;16.342;2023-07-13T05:26:28;5.03;;;2.40;;
17169;SDS011;8700;48.222;16.342;2023-07-13T05:29:49;3.28;;;2.45;;
17169;SDS011;8700;48.222;16.342;2023-07-13T05:33:12;2.97;;;2.40;;
17169;SDS011;8700;48.222;16.342;2023-07-13T05:36:33;2.03;;;1.92;;
17169;SDS011;8700;48.222;16.342;2023-07-13T05:39:55;2.00;;;1.90;;
17169;SDS011;8700;48.222;16.342;2023-07-13T05:43:16;3.25;;;2.13;;
17169;SDS011;8700;48.222;16.342;2023-07-13T05:46:37;4.43;;;2.00;;
17169;SDS011;8700;48.222;16.342;2023-07-13T05:50:00;2.10;;;2.00;;
17169;SDS011;8700;48.222;16.342;2023-07-13T05:53:22;2.58;;;1.85;;
17169;SDS011;8700;48.222;16.342;2023-07-13T05:56:43;2.25;;;2.08;;
17169;SDS011;8700;48.222;16.342;2023-07-13T06:00:04;3.30;;;3.10;;
17169;SDS011;8700;48.222;16.342;2023-07-13T06:03:27;3.47;;;3.22;;
17169;SDS011;8700;48.222;16.342;2023-07-13T06:06:49;2.60;;;2.10;;
17169;SDS011;8700;48.222;16.342;2023-07-13T06:10:11;3.47;;;3.17;;
17169;SDS011;8700;48.222;16.342;2023-07-13T06:13:32;2.58;;;2.38;;
17169;SDS011;8700;48.222;16.342;2023-07-13T06:16:54;4.50;;;2.42;;
17169;SDS011;8700;48.222;16.342;2023-07-13T06:20:15;8.40;;;2.28;;
17169;SDS011;8700;48.222;16.342;2023-07-13T06:23:38;3.03;;;2.78;;
17169;SDS011;8700;48.222;16.342;2023-07-13T06:26:59;3.50;;;2.75;;
17169;SDS011;8700;48.222;16.342;2023-07-13T06:30:20;3.35;;;2.88;;
17169;SDS011;8700;48.222;16.342;2023-07-13T06:33:41;3.55;;;2.85;;
17169;SDS011;8700;48.222;16.342;2023-07-13T06:37:04;3.08;;;2.88;;
17169;SDS011;8700;48.222;16.342;2023-07-13T06:40:27;2.78;;;2.58;;
17169;SDS011;8700;48.222;16.342;2023-07-13T06:43:50;2.88;;;2.67;;
17169;SDS011;8700;48.222;16.342;2023-07-13T06:47:11;2.92;;;2.72;;
17169;SDS011;8700;48.222;16.342;2023-07-13T06:50:32;3.58;;;2.78;;
17169;SDS011;8700;48.222;16.342;2023-07-13T06:53:54;3.10;;;2.80;;
17169;SDS011;8700;48.222;16.342;2023-07-13T06:57:17;2.63;;;2.42;;
17169;SDS011;8700;48.222;16.342;2023-07-13T07:00:38;2.75;;;2.55;;
17169;SDS011;8700;48.222;16.342;2023-07-13T07:04:00;3.60;;;3.30;;
17169;SDS011;8700;48.222;16.342;2023-07-13T07:07:23;2.80;;;2.60;;
17169;SDS011;8700;48.222;16.342;2023-07-13T07:10:44;2.92;;;2.72;;
17169;SDS011;8700;48.222;16.342;2023-07-13T07:14:08;6.68;;;6.18;;
17169;SDS011;8700;48.222;16.342;2023-07-13T07:17:29;2.45;;;2.25;;
17169;SDS011;8700;48.222;16.342;2023-07-13T07:20:50;2.97;;;2.28;;
17169;SDS011;8700;48.222;16.342;2023-07-13T07:24:12;3.78;;;2.35;;
17169;SDS011;8700;48.222;16.342;2023-07-13T07:27:34;2.53;;;2.42;;
17169;SDS011;8700;48.222;16.342;2023-07-13T07:30:57;3.63;;;3.08;;
17169;SDS011;8700;48.222;16.342;2023-07-13T07:34:19;2.92;;;2.63;;
17169;SDS011;8700;48.222;16.342;2023-07-13T07:37:40;4.00;;;2.58;;
17169;SDS011;8700;48.222;16.342;2023-07-13T07:41:02;4.72;;;3.28;;
17169;SDS011;8700;48.222;16.342;2023-07-13T07:44:24;4.13;;;3.72;;
17169;SDS011;8700;48.222;16.342;2023-07-13T07:47:47;1.98;;;1.88;;
17169;SDS011;8700;48.222;16.342;2023-07-13T07:51:09;3.05;;;2.80;;
17169;SDS011;8700;48.222;16.342;2023-07-13T07:54:31;3.03;;;2.65;;
17169;SDS011;8700;48.222;16.342;2023-07-13T07:57:53;3.03;;;2.63;;
17169;SDS011;8700;48.222;16.342;2023-07-13T08:01:14;2.55;;;2.35;;
17169;SDS011;8700;48.222;16.342;2023-07-13T08:04:38;2.50;;;2.30;;
17169;SDS011;8700;48.222;16.342;2023-07-13T08:07:59;2.33;;;2.10;;
17169;SDS011;8700;48.222;16.342;2023-07-13T08:11:20;2.40;;;2.30;;
17169;SDS011;8700;48.222;16.342;2023-07-13T08:14:42;2.22;;;2.05;;
17169;SDS011;8700;48.222;16.342;2023-07-13T08:18:03;2.65;;;2.45;;
17169;SDS011;8700;48.222;16.342;2023-07-13T08:21:28;2.67;;;2.00;;
17169;SDS011;8700;48.222;16.342;2023-07-13T08:24:49;2.60;;;2.45;;
17169;SDS011;8700;48.222;16.342;2023-07-13T08:28:15;3.05;;;2.30;;
17169;SDS011;8700;48.222;16.342;2023-07-13T08:31:36;2.17;;;1.98;;
17169;SDS011;8700;48.222;16.342;2023-07-13T08:34:57;2.83;;;2.60;;
17169;SDS011;8700;48.222;16.342;2023-07-13T08:38:20;2.00;;;1.90;;
17169;SDS011;8700;48.222;16.342;2023-07-13T08:41:41;2.22;;;2.00;;
17169;SDS011;8700;48.222;16.342;2023-07-13T08:45:07;3.10;;;2.90;;
17169;SDS011;8700;48.222;16.342;2023-07-13T08:48:38;3.05;;;2.85;;
17169;SDS011;8700;48.222;16.342;2023-07-13T08:52:05;2.38;;;2.25;;
17169;SDS011;8700;48.222;16.342;2023-07-13T08:55:34;2.95;;;2.70;;
17169;SDS011;8700;48.222;16.342;2023-07-13T08:58:58;2.95;;;2.67;;
17169;SDS011;8700;48.222;16.342;2023-07-13T09:02:26;2.92;;;2.67;;
17169;SDS011;8700;48.222;16.342;2023-07-13T09:05:51;3.13;;;2.72;;
17169;SDS011;8700;48.222;16.342;2023-07-13T09:09:19;3.65;;;3.33;;
17169;SDS011;8700;48.222;16.342;2023-07-13T09:12:57;3.55;;;3.25;;
17169;SDS011;8700;48.222;16.342;2023-07-13T09:16:27;3.30;;;3.00;;
17169;SDS011;8700;48.222;16.342;2023-07-13T09:19:49;3.85;;;3.28;;
17169;SDS011;8700;48.222;16.342;2023-07-13T09:23:19;4.25;;;3.85;;
17169;SDS011;8700;48.222;16.342;2023-07-13T09:26:42;3.95;;;3.67;;
17169;SDS011;8700;48.222;16.342;2023-07-13T09:30:11;4.07;;;3.78;;
17169;SDS011;8700;48.222;16.342;2023-07-13T09:33:44;5.53;;;4.38;;
17169;SDS011;8700;48.222;16.342;2023-07-13T09:37:05;4.28;;;3.97;;
17169;SDS011;8700;48.222;16.342;2023-07-13T09:40:29;4.65;;;3.88;;
17169;SDS011;8700;48.222;16.342;2023-07-13T09:44:10;4.30;;;3.97;;
17169;SDS011;8700;48.222;16.342;2023-07-13T09:47:38;5.43;;;4.93;;
17169;SDS011;8700;48.222;16.342;2023-07-13T09:51:02;4.53;;;4.22;;
17169;SDS011;8700;48.222;16.342;2023-07-13T09:54:34;5.10;;;4.72;;
17169;SDS011;8700;48.222;16.342;2023-07-13T09:57:56;4.97;;;4.57;;
17169;SDS011;8700;48.222;16.342;2023-07-13T10:01:17;4.78;;;4.35;;
17169;SDS011;8700;48.222;16.342;2023-07-13T10:04:58;4.38;;;3.92;;
17169;SDS011;8700;48.222;16.342;2023-07-13T10:08:24;5.43;;;5.00;;
17169;SDS011;8700;48.222;16.342;2023-07-13T10:11:47;5.00;;;4.57;;
17169;SDS011;8700;48.222;16.342;2023-07-13T10:15:13;5.80;;;5.40;;
17169;SDS011;8700;48.222;16.342;2023-07-13T10:18:39;4.97;;;4.60;;
17169;SDS011;8700;48.222;16.342;2023-07-13T10:22:14;4.82;;;4.43;;
17169;SDS011;8700;48.222;16.342;2023-07-13T10:25:43;5.38;;;4.88;;
17169;SDS011;8700;48.222;16.342;2023-07-13T10:29:09;5.75;;;4.80;;
17169;SDS011;8700;48.222;16.342;2023-07-13T10:32:34;5.20;;;4.78;;
17169;SDS011;8700;48.222;16.342;2023-07-13T10:36:03;5.07;;;4.78;;
17169;SDS011;8700;48.222;16.342;2023-07-13T10:39:34;5.88;;;5.32;;
17169;SDS011;8700;48.222;16.342;2023-07-13T10:42:56;5.40;;;4.97;;
17169;SDS011;8700;48.222;16.342;2023-07-13T10:46:22;5.43;;;5.00;;
17169;SDS011;8700;48.222;16.342;2023-07-13T10:49:46;6.38;;;5.20;;
17169;SDS011;8700;48.222;16.342;2023-07-13T10:53:17;4.65;;;4.35;;
17169;SDS011;8700;48.222;16.342;2023-07-13T10:56:41;4.90;;;4.50;;
17169;SDS011;8700;48.222;16.342;2023-07-13T11:00:15;5.13;;;4.60;;
17169;SDS011;8700;48.222;16.342;2023-07-13T11:03:46;4.82;;;4.53;;
17169;SDS011;8700;48.222;16.342;2023-07-13T11:07:11;4.68;;;4.28;;
17169;SDS011;8700;48.222;16.342;2023-07-13T11:10:46;6.15;;;4.97;;
17169;SDS011;8700;48.222;16.342;2023-07-13T11:18:01;4.72;;;4.32;;
17169;SDS011;8700;48.222;16.342;2023-07-13T11:21:25;4.88;;;4.57;;
17169;SDS011;8700;48.222;16.342;2023-07-13T11:24:48;4.85;;;4.55;;
17169;SDS011;8700;48.222;16.342;2023-07-13T11:28:18;4.75;;;4.35;;
17169;SDS011;8700;48.222;16.342;2023-07-13T11:31:51;4.90;;;4.50;;
17169;SDS011;8700;48.222;16.342;2023-07-13T11:35:13;4.90;;;4.20;;
17169;SDS011;8700;48.222;16.342;2023-07-13T11:38:42;4.25;;;3.95;;
17169;SDS011;8700;48.222;16.342;2023-07-13T11:42:07;4.70;;;4.40;;
17169;SDS011;8700;48.222;16.342;2023-07-13T11:45:31;4.57;;;4.28;;
17169;SDS011;8700;48.222;16.342;2023-07-13T11:48:54;4.32;;;4.10;;
17169;SDS011;8700;48.222;16.342;2023-07-13T11:52:16;5.43;;;4.57;;
17169;SDS011;8700;48.222;16.342;2023-07-13T11:55:40;4.45;;;4.15;;
17169;SDS011;8700;48.222;16.342;2023-07-13T11:59:04;5.07;;;4.57;;
17169;SDS011;8700;48.222;16.342;2023-07-13T12:02:28;5.30;;;4.80;;
17169;SDS011;8700;48.222;16.342;2023-07-13T12:05:57;4.03;;;3.72;;
17169;SDS011;8700;48.222;16.342;2023-07-13T12:09:20;5.82;;;5.20;;
17169;SDS011;8700;48.222;16.342;2023-07-13T12:12:47;5.13;;;4.38;;
17169;SDS011;8700;48.222;16.342;2023-07-13T12:16:12;4.75;;;4.38;;
17169;SDS011;8700;48.222;16.342;2023-07-13T12:19:36;5.20;;;4.38;;
17169;SDS011;8700;48.222;16.342;2023-07-13T12:22:58;5.03;;;4.60;;
17169;SDS011;8700;48.222;16.342;2023-07-13T12:26:21;5.35;;;4.95;;
17169;SDS011;8700;48.222;16.342;2023-07-13T12:29:48;4.88;;;4.50;;
17169;SDS011;8700;48.222;16.342;2023-07-13T12:33:11;5.20;;;4.70;;
17169;SDS011;8700;48.222;16.342;2023-07-13T12:36:34;3.80;;;3.60;;
17169;SDS011;8700;48.222;16.342;2023-07-13T12:39:58;4.32;;;3.92;;
17169;SDS011;8700;48.222;16.342;2023-07-13T12:43:20;4.63;;;4.28;;
17169;SDS011;8700;48.222;16.342;2023-07-13T12:46:55;4.93;;;4.25;;
17169;SDS011;8700;48.222;16.342;2023-07-13T12:50:19;4.38;;;4.07;;
17169;SDS011;8700;48.222;16.342;2023-07-13T12:53:42;4.65;;;4.35;;
17169;SDS011;8700;48.222;16.342;2023-07-13T12:57:12;4.55;;;4.25;;
17169;SDS011;8700;48.222;16.342;2023-07-13T13:00:37;4.95;;;4.55;;
17169;SDS011;8700;48.222;16.342;2023-07-13T13:04:00;4.50;;;4.20;;
17169;SDS011;8700;48.222;16.342;2023-07-13T13:07:26;5.72;;;5.22;;
17169;SDS011;8700;48.222;16.342;2023-07-13T13:10:47;5.63;;;5.22;;
17169;SDS011;8700;48.222;16.342;2023-07-13T13:14:10;5.00;;;4.30;;
17169;SDS011;8700;48.222;16.342;2023-07-13T13:17:31;5.25;;;4.85;;
17169;SDS011;8700;48.222;16.342;2023-07-13T13:20:52;6.90;;;5.28;;
17169;SDS011;8700;48.222;16.342;2023-07-13T13:24:14;5.32;;;4.93;;
17169;SDS011;8700;48.222;16.342;2023-07-13T13:27:39;4.60;;;4.30;;
17169;SDS011;8700;48.222;16.342;2023-07-13T13:31:03;5.70;;;5.22;;
17169;SDS011;8700;48.222;16.342;2023-07-13T13:34:24;5.45;;;4.60;;
17169;SDS011;8700;48.222;16.342;2023-07-13T13:37:46;5.63;;;4.85;;
17169;SDS011;8700;48.222;16.342;2023-07-13T13:41:09;4.75;;;4.35;;
17169;SDS011;8700;48.222;16.342;2023-07-13T13:44:32;4.55;;;4.25;;
17169;SDS011;8700;48.222;16.342;2023-07-13T13:47:55;6.05;;;4.45;;
17169;SDS011;8700;48.222;16.342;2023-07-13T13:51:16;4.75;;;4.15;;
17169;SDS011;8700;48.222;16.342;2023-07-13T13:54:39;5.47;;;4.32;;
17169;SDS011;8700;48.222;16.342;2023-07-13T13:58:00;4.82;;;4.43;;
17169;SDS011;8700;48.222;16.342;2023-07-13T14:01:22;4.63;;;4.00;;
17169;SDS011;8700;48.222;16.342;2023-07-13T14:04:45;7.78;;;6.65;;
17169;SDS011;8700;48.222;16.342;2023-07-13T14:08:08;5.95;;;5.45;;
17169;SDS011;8700;48.222;16.342;2023-07-13T14:11:34;4.53;;;4.05;;
17169;SDS011;8700;48.222;16.342;2023-07-13T14:14:55;4.97;;;4.57;;
17169;SDS011;8700;48.222;16.342;2023-07-13T14:18:17;3.95;;;3.70;;
17169;SDS011;8700;48.222;16.342;2023-07-13T14:21:40;4.45;;;4.05;;
17169;SDS011;8700;48.222;16.342;2023-07-13T14:25:01;4.30;;;4.00;;
17169;SDS011;8700;48.222;16.342;2023-07-13T14:28:23;4.80;;;4.50;;
17169;SDS011;8700;48.222;16.342;2023-07-13T14:31:48;4.45;;;4.05;;
17169;SDS011;8700;48.222;16.342;2023-07-13T14:35:10;4.40;;;4.10;;
17169;SDS011;8700;48.222;16.342;2023-07-13T14:38:33;4.15;;;3.95;;
17169;SDS011;8700;48.222;16.342;2023-07-13T14:41:55;4.80;;;4.40;;
17169;SDS011;8700;48.222;16.342;2023-07-13T14:45:17;4.80;;;4.50;;
17169;SDS011;8700;48.222;16.342;2023-07-13T14:48:39;6.68;;;5.38;;
17169;SDS011;8700;48.222;16.342;2023-07-13T14:52:05;5.20;;;4.80;;
17169;SDS011;8700;48.222;16.342;2023-07-13T14:55:32;5.13;;;4.80;;
17169;SDS011;8700;48.222;16.342;2023-07-13T14:58:54;5.15;;;4.75;;
17169;SDS011;8700;48.222;16.342;2023-07-13T15:02:16;4.88;;;4.10;;
17169;SDS011;8700;48.222;16.342;2023-07-13T15:05:43;5.53;;;5.03;;
17169;SDS011;8700;48.222;16.342;2023-07-13T15:09:05;5.63;;;5.22;;
17169;SDS011;8700;48.222;16.342;2023-07-13T15:12:30;4.72;;;4.32;;
17169;SDS011;8700;48.222;16.342;2023-07-13T15:15:51;5.07;;;4.68;;
17169;SDS011;8700;48.222;16.342;2023-07-13T15:19:14;5.47;;;5.07;;
17169;SDS011;8700;48.222;16.342;2023-07-13T15:22:36;5.18;;;4.68;;
17169;SDS011;8700;48.222;16.342;2023-07-13T15:25:57;5.85;;;5.35;;
17169;SDS011;8700;48.222;16.342;2023-07-13T15:29:20;5.72;;;5.32;;
17169;SDS011;8700;48.222;16.342;2023-07-13T15:32:42;4.85;;;4.45;;
17169;SDS011;8700;48.222;16.342;2023-07-13T15:36:04;5.00;;;4.38;;
17169;SDS011;8700;48.222;16.342;2023-07-13T15:39:25;7.25;;;5.13;;
17169;SDS011;8700;48.222;16.342;2023-07-13T15:42:47;5.53;;;5.00;;
17169;SDS011;8700;48.222;16.342;2023-07-13T15:46:13;5.32;;;4.43;;
17169;SDS011;8700;48.222;16.342;2023-07-13T15:49:35;5.32;;;4.68;;
17169;SDS011;8700;48.222;16.342;2023-07-13T15:52:56;5.85;;;5.45;;
17169;SDS011;8700;48.222;16.342;2023-07-13T15:56:23;4.65;;;4.22;;
17169;SDS011;8700;48.222;16.342;2023-07-13T15:59:45;5.15;;;4.75;;
17169;SDS011;8700;48.222;16.342;2023-07-13T16:03:08;6.03;;;4.30;;
17169;SDS011;8700;48.222;16.342;2023-07-13T16:06:29;4.70;;;4.30;;
17169;SDS011;8700;48.222;16.342;2023-07-13T16:09:54;6.28;;;4.75;;
17169;SDS011;8700;48.222;16.342;2023-07-13T16:13:15;4.30;;;4.00;;
17169;SDS011;8700;48.222;16.342;2023-07-13T16:16:44;4.38;;;3.97;;
17169;SDS011;8700;48.222;16.342;2023-07-13T16:20:07;6.22;;;5.00;;
17169;SDS011;8700;48.222;16.342;2023-07-13T16:23:31;6.30;;;4.80;;
17169;SDS011;8700;48.222;16.342;2023-07-13T16:26:55;7.28;;;5.13;;
17169;SDS011;8700;48.222;16.342;2023-07-13T16:30:17;5.05;;;4.63;;
17169;SDS011;8700;48.222;16.342;2023-07-13T16:33:42;7.88;;;4.72;;
17169;SDS011;8700;48.222;16.342;2023-07-13T16:37:12;4.65;;;4.30;;
17169;SDS011;8700;48.222;16.342;2023-07-13T16:40:35;4.60;;;4.20;;
17169;SDS011;8700;48.222;16.342;2023-07-13T16:43:57;3.92;;;3.63;;
17169;SDS011;8700;48.222;16.342;2023-07-13T16:47:18;4.72;;;3.97;;
17169;SDS011;8700;48.222;16.342;2023-07-13T16:50:40;5.20;;;4.68;;
17169;SDS011;8700;48.222;16.342;2023-07-13T16:54:08;4.80;;;3.90;;
17169;SDS011;8700;48.222;16.342;2023-07-13T16:57:31;6.75;;;4.53;;
17169;SDS011;8700;48.222;16.342;2023-07-13T17:00:53;6.78;;;5.25;;
17169;SDS011;8700;48.222;16.342;2023-07-13T17:04:16;4.32;;;3.92;;
17169;SDS011;8700;48.222;16.342;2023-07-13T17:07:40;4.63;;;4.13;;
17169;SDS011;8700;48.222;16.342;2023-07-13T17:11:03;4.43;;;4.03;;
17169;SDS011;8700;48.222;16.342;2023-07-13T17:14:24;5.30;;;4.72;;
17169;SDS011;8700;48.222;16.342;2023-07-13T17:17:50;4.70;;;4.30;;
17169;SDS011;8700;48.222;16.342;2023-07-13T17:21:13;4.88;;;4.47;;
17169;SDS011;8700;48.222;16.342;2023-07-13T17:24:35;6.65;;;4.38;;
17169;SDS011;8700;48.222;16.342;2023-07-13T17:27:59;5.05;;;4.65;;
17169;SDS011;8700;48.222;16.342;2023-07-13T17:31:20;4.78;;;4.40;;
17169;SDS011;8700;48.222;16.342;2023-07-13T17:34:41;4.28;;;3.95;;
17169;SDS011;8700;48.222;16.342;2023-07-13T17:38:04;4.35;;;3.95;;
17169;SDS011;8700;48.222;16.342;2023-07-13T17:41:26;6.45;;;4.75;;
17169;SDS011;8700;48.222;16.342;2023-07-13T17:44:48;4.68;;;4.30;;
17169;SDS011;8700;48.222;16.342;2023-07-13T17:48:10;4.55;;;4.15;;
17169;SDS011;8700;48.222;16.342;2023-07-13T17:51:31;4.63;;;4.22;;
17169;SDS011;8700;48.222;16.342;2023-07-13T17:54:55;4.72;;;4.25;;
17169;SDS011;8700;48.222;16.342;2023-07-13T17:58:17;4.72;;;4.32;;
17169;SDS011;8700;48.222;16.342;2023-07-13T18:01:40;4.57;;;4.18;;
17169;SDS011;8700;48.222;16.342;2023-07-13T18:05:02;5.47;;;4.28;;
17169;SDS011;8700;48.222;16.342;2023-07-13T18:08:28;3.85;;;3.58;;
17169;SDS011;8700;48.222;16.342;2023-07-13T18:11:52;4.43;;;3.95;;
17169;SDS011;8700;48.222;16.342;2023-07-13T18:15:14;4.20;;;3.90;;
17169;SDS011;8700;48.222;16.342;2023-07-13T18:18:37;4.13;;;3.78;;
17169;SDS011;8700;48.222;16.342;2023-07-13T18:21:58;4.13;;;3.72;;
17169;SDS011;8700;48.222;16.342;2023-07-13T18:25:23;4.22;;;3.92;;
17169;SDS011;8700;48.222;16.342;2023-07-13T18:28:45;4.13;;;3.72;;
17169;SDS011;8700;48.222;16.342;2023-07-13T18:32:09;3.58;;;3.25;;
17169;SDS011;8700;48.222;16.342;2023-07-13T18:35:39;4.50;;;3.40;;
17169;SDS011;8700;48.222;16.342;2023-07-13T18:39:00;4.55;;;3.70;;
17169;SDS011;8700;48.222;16.342;2023-07-13T18:42:24;3.95;;;3.63;;
17169;SDS011;8700;48.222;16.342;2023-07-13T18:45:46;4.55;;;3.90;;
17169;SDS011;8700;48.222;16.342;2023-07-13T18:49:14;3.85;;;3.55;;
17169;SDS011;8700;48.222;16.342;2023-07-13T18:52:37;5.38;;;3.92;;
17169;SDS011;8700;48.222;16.342;2023-07-13T18:55:58;4.55;;;4.07;;
17169;SDS011;8700;48.222;16.342;2023-07-13T18:59:19;3.63;;;3.42;;
17169;SDS011;8700;48.222;16.342;2023-07-13T19:02:42;6.25;;;3.97;;
17169;SDS011;8700;48.222;16.342;2023-07-13T19:06:04;4.07;;;3.75;;
17169;SDS011;8700;48.222;16.342;2023-07-13T19:09:27;4.47;;;3.22;;
17169;SDS011;8700;48.222;16.342;2023-07-13T19:12:49;4.65;;;4.35;;
17169;SDS011;8700;48.222;16.342;2023-07-13T19:16:14;3.67;;;3.40;;
17169;SDS011;8700;48.222;16.342;2023-07-13T19:19:35;4.00;;;3.63;;
17169;SDS011;8700;48.222;16.342;2023-07-13T19:22:57;4.60;;;3.95;;
17169;SDS011;8700;48.222;16.342;2023-07-13T19:26:22;4.85;;;3.78;;
17169;SDS011;8700;48.222;16.342;2023-07-13T19:29:46;5.30;;;4.30;;
17169;SDS011;8700;48.222;16.342;2023-07-13T19:33:08;4.28;;;3.90;;
17169;SDS011;8700;48.222;16.342;2023-07-13T19:36:31;4.20;;;3.88;;
17169;SDS011;8700;48.222;16.342;2023-07-13T19:39:53;4.13;;;3.63;;
17169;SDS011;8700;48.222;16.342;2023-07-13T19:43:16;4.47;;;4.10;;
17169;SDS011;8700;48.222;16.342;2023-07-13T19:46:37;4.47;;;4.00;;
17169;SDS011;8700;48.222;16.342;2023-07-13T19:49:58;4.20;;;3.90;;
17169;SDS011;8700;48.222;16.342;2023-07-13T19:53:20;4.93;;;4.47;;
17169;SDS011;8700;48.222;16.342;2023-07-13T19:56:41;6.40;;;4.10;;
17169;SDS011;8700;48.222;16.342;2023-07-13T20:00:09;4.43;;;4.07;;
17169;SDS011;8700;48.222;16.342;2023-07-13T20:03:34;5.03;;;4.45;;
17169;SDS011;8700;48.222;16.342;2023-07-13T20:06:55;5.13;;;3.45;;
17169;SDS011;8700;48.222;16.342;2023-07-13T20:10:18;4.43;;;4.10;;
17169;SDS011;8700;48.222;16.342;2023-07-13T20:13:42;5.05;;;4.45;;
17169;SDS011;8700;48.222;16.342;2023-07-13T20:17:11;4.53;;;4.13;;
17169;SDS011;8700;48.222;16.342;2023-07-13T20:20:42;5.22;;;4.55;;
17169;SDS011;8700;48.222;16.342;2023-07-13T20:24:11;4.80;;;4.40;;
17169;SDS011;8700;48.222;16.342;2023-07-13T20:27:35;4.57;;;4.18;;
17169;SDS011;8700;48.222;16.342;2023-07-13T20:30:57;5.00;;;4.25;;
17169;SDS011;8700;48.222;16.342;2023-07-13T20:34:22;4.32;;;4.03;;